Terminal Aerodrome Forecast
Issued by NWS

Home | Current Version | Previous Version | Text Only | Print | Product List | Glossary On
Versions: 1 2 3 4 5 6 7 8 9 10 11 12 13 14 15 16 17 18 19 20 21 22 23 24 25
000
FTUS45 KBOU 301737
TAFBJC
TAF
KBJC 301737Z 3018/3118 VRB06KT P6SM FEW100 FEW220
     FM302000 10008KT P6SM FEW110 FEW220
     FM310100 12006KT P6SM FEW220
     FM310500 30005KT P6SM SCT220
     FM311500 VRB05KT P6SM FEW220=

USA.gov is the U.S. government's official web portal to all federal, state and local government web resources and services.